東京国際空港の過去48時間の天気

東京国際空港 (Tokyo/Intl)

現在時刻: 10/14 11:10 JST (10/14 02:10 UTC) 以下の時間は現地時間です。

過去48時間のMETAR気象情報
時間 風向 風速(m/s) 視程 気温(℃) 湿度(%) 気圧(hPa) 天気現象
14 10:48 北北西 6 6000m 17 94 1021 弱い雨
14 10:30 北北西 7 4800m 17 94 1021 弱い雨 もや
14 10:19 北北西 6 4800m 16 94 1021 弱い雨 もや
14 10:06 北北西 7 5000m 17 88 1021 弱い雨 もや
14 09:30 北北西 7 10km以上 18 77 1021 弱い雨
14 09:00 北北西 7 10km以上 18 77 1022 弱い雨
14 08:30 6 10km以上 18 77 1022 弱い雨
14 08:00 6 10km以上 18 77 1022 弱い雨
14 07:30 6 10km以上 18 77 1022 周辺でしゅう雨
14 07:00 7 10km以上 19 73 1022 弱い雨
14 06:30 7 10km以上 19 78 1021 弱い雨
14 06:00 7 10km以上 19 78 1021 弱い雨
14 05:30 7 10km以上 19 73 1021 周辺でしゅう雨
14 05:00 北北東 7 10km以上 19 73 1021
14 04:30 6 10km以上 19 73 1021
14 04:00 北北東 7 10km以上 19 73 1021
14 03:30 北北東 8 10km以上 19 73 1021
14 03:00 北北東 9 10km以上 19 68 1021
14 02:30 北北東 8 10km以上 19 73 1021
14 02:00 北北東 8 10km以上 20 64 1021
14 01:30 北北東 8 10km以上 20 64 1021
14 01:00 北北東 8 10km以上 20 64 1021
14 00:30 北北東 7 10km以上 20 60 1021
14 00:00 北北東 7 10km以上 20 60 1021
13 23:30 北北東 6 10km以上 20 60 1021
13 23:00 北北東 6 10km以上 21 56 1020
13 22:30 北北東 5 10km以上 21 56 1020
13 22:00 北北東 6 10km以上 21 60 1020
13 21:30 北東 6 10km以上 21 64 1020
13 21:00 北東 6 10km以上 21 73 1020
13 20:30 北東 7 10km以上 22 69 1019
13 20:00 北東 7 10km以上 22 65 1019
13 19:30 北東 7 10km以上 23 53 1018
13 19:00 7 10km以上 23 50 1018
13 18:30 7 10km以上 24 41 1017
13 18:00 6 10km以上 24 54 1017
13 17:30 6 10km以上 24 54 1016
13 17:00 8 10km以上 25 50 1015
13 16:30 7 10km以上 25 54 1014
13 16:00 北北西 8 10km以上 26 45 1014
13 15:30 8 10km以上 27 45 1013
13 15:00 8 10km以上 27 48 1012
13 14:30 8 10km以上 27 51 1012
13 14:00 9 10km以上 27 51 1011
13 13:30 10 10km以上 27 45 1011
13 13:00 北北西 10 10km以上 28 45 1010
13 12:41 11 10km以上 28 45 1010
13 12:30 10 10km以上 27 51 1010
13 12:00 北北西 11 10km以上 28 45 1010
13 11:44 9 10km以上 27 51 1010
13 11:30 10 10km以上 28 48 1010
13 11:17 北北西 8 10km以上 28 48 1010
13 11:00 北北西 10 10km以上 28 42 1009
13 10:30 北北西 10 10km以上 28 45 1009
13 10:00 北北西 10 10km以上 28 45 1008
13 09:40 北北西 10 10km以上 28 45 1007
13 09:30 北西 11 10km以上 28 48 1007
13 09:00 北北西 11 10km以上 27 48 1006
13 08:30 北西 11 10km以上 27 48 1005
13 08:00 北西 11 10km以上 27 48 1004
13 07:37 北西 10 10km以上 27 48 1004
13 07:30 北西 11 10km以上 27 48 1003
13 07:00 西北西 7 10km以上 26 51 1003
13 06:30 西北西 6 10km以上 25 57 1002
13 06:00 西北西 4 10km以上 23 73 1001
13 05:30 西 4 10km以上 23 69 1000
13 05:00 西北西 4 10km以上 24 65 998
13 04:30 西 5 10km以上 25 61 997
RJTT 140148Z 34012KT 6000 -RA FEW005 BKN060 17/16 Q1021 RMK 1ST005 7SC060 A3016
RJTT 140130Z 33013KT 4800 -RA BR FEW005 SCT025 BKN050 17/16 Q1021 BECMG TL0200 8000 -RA RMK 1ST005 3SC025 7SC050 A3016
RJTT 140119Z 33012KT 4800 -RA BR FEW015 BKN025 16/15 Q1021 RMK 1CU015 7SC025 A3017
RJTT 140106Z 33013KT 5000 -RA BR FEW015 BKN025 17/15 Q1021 RMK 1CU015 7SC025 A3017
RJTT 140030Z 33014KT 9999 -RA FEW015 BKN025 18/14 Q1021 NOSIG RMK 1CU015 7SC025 A3018
RJTT 140000Z 34013KT 9999 -RA FEW015 BKN025 18/14 Q1022 NOSIG RMK 1CU015 7SC025 A3018
RJTT 132330Z 36012KT 9999 -RA FEW010 BKN025 18/14 Q1022 NOSIG RMK 1ST010 7SC025 A3019
RJTT 132300Z 36012KT 9999 -RA FEW020 BKN030 18/14 Q1022 NOSIG RMK 1CU020 7SC030 A3018 MOD TURB OBS AT 2246Z AN BTN 15000FT AND 14000FT BY B737
RJTT 132230Z 35012KT 9999 VCSH FEW020 BKN030 18/14 Q1022 NOSIG RMK 1CU020 7SC030 A3019
RJTT 132200Z 36013KT 9999 -RA FEW020 BKN030 19/14 Q1022 NOSIG RMK 1CU020 7SC030 A3018
RJTT 132130Z 01014KT 9999 -RA FEW020 BKN030 19/15 Q1021 NOSIG RMK 1CU020 7SC030 A3018
RJTT 132100Z 01013KT 9999 -RA FEW020 BKN030 19/15 Q1021 NOSIG RMK 1CU020 7SC030 A3018
RJTT 132030Z 01013KT 9999 VCSH FEW020 BKN030 19/14 Q1021 NOSIG RMK 1CU020 7SC030 A3018
RJTT 132000Z 02013KT 9999 FEW020 BKN030 BKN080 19/14 Q1021 NOSIG RMK 1CU020 5CU030 7AC080 A3017
RJTT 131930Z 01012KT 9999 FEW020 SCT030 BKN080 19/14 Q1021 NOSIG RMK 1CU020 3CU030 7AC080 A3017
RJTT 131900Z 02013KT 9999 FEW020 BKN080 19/14 Q1021 NOSIG RMK 1CU020 7AC080 A3017
RJTT 131830Z 03015KT 9999 FEW020 BKN080 19/14 Q1021 NOSIG RMK 1CU020 7AC080 A3016
RJTT 131800Z 03017KT 9999 FEW020 SCT025 BKN080 19/13 Q1021 NOSIG RMK 1CU020 3CU025 7AC080 A3016
RJTT 131730Z 03016KT 9999 FEW020 SCT025 BKN080 19/14 Q1021 NOSIG RMK 1CU020 3CU025 6AC080 A3016
RJTT 131700Z 02015KT 9999 FEW020 SCT030 BKN080 20/13 Q1021 NOSIG RMK 1CU020 4CU030 7AC080 A3016
RJTT 131630Z 02016KT 9999 FEW025 SCT080 BKN110 20/13 Q1021 NOSIG RMK 1CU025 3AC080 7AC110 A3017
RJTT 131600Z 03015KT 9999 FEW030 BKN080 20/13 Q1021 NOSIG RMK 1CU030 7AC080 A3016
RJTT 131530Z 03014KT 9999 FEW030 SCT080 BKN110 20/12 Q1021 NOSIG RMK 1CU030 4AC080 7AC110 A3017
RJTT 131500Z 03013KT 9999 FEW030 BKN080 BKN120 20/12 Q1021 NOSIG RMK 1CU030 5AC080 7AC120 A3016
RJTT 131430Z 03011KT 9999 FEW030 BKN080 BKN110 20/12 Q1021 NOSIG RMK 1CU030 5AC080 7AC110 A3016
RJTT 131400Z 02011KT 9999 FEW030 BKN080 21/12 Q1020 NOSIG RMK 1CU030 7AC080 A3015
RJTT 131330Z 02010KT 9999 FEW030 BKN080 21/12 Q1020 NOSIG RMK 1CU030 7AC080 A3015
RJTT 131300Z 03012KT 9999 FEW030 BKN080 21/13 Q1020 NOSIG RMK 1CU030 7AC080 A3014
RJTT 131230Z 04012KT 9999 FEW030 BKN080 21/14 Q1020 NOSIG RMK 1CU030 7AC080 A3013
RJTT 131200Z 04012KT 9999 FEW030 BKN080 21/16 Q1020 NOSIG RMK 1CU030 7AC080 A3012
RJTT 131130Z 05014KT 9999 FEW030 BKN080 22/16 Q1019 NOSIG RMK 1CU030 7AC080 A3011
RJTT 131100Z 04014KT 9999 FEW030 BKN080 22/15 Q1019 NOSIG RMK 1CU030 7AC080 A3010
RJTT 131030Z 04013KT 9999 FEW020 BKN090 23/13 Q1018 NOSIG RMK 1CU020 7AC090 A3008
RJTT 131000Z 01014KT 9999 FEW020 BKN090 23/12 Q1018 NOSIG RMK 1CU020 7AC090 A3007
RJTT 130930Z 01013KT 9999 FEW020 BKN090 24/10 Q1017 NOSIG RMK 1CU020 5AC090 A3005
RJTT 130900Z 01011KT 9999 FEW020 SCT060 24/14 Q1017 NOSIG RMK 1CU020 4SC060 A3003
RJTT 130830Z 01012KT 9999 FEW020 SCT060 24/14 Q1016 NOSIG RMK 1CU020 4SC060 A3001
RJTT 130800Z 36015KT 9999 FEW030 SCT060 25/14 Q1015 NOSIG RMK 1CU030 3SC060 A2998 MOD TURB OBS AT 0749Z AROUND UTIBO BTN 12000FT AND 10000FT IN DES BY B738
RJTT 130730Z 35014KT 9999 FEW030 SCT050 25/15 Q1014 NOSIG RMK 1CU030 3SC050 A2996
RJTT 130700Z 34015KT 9999 FEW030 SCT050 26/13 Q1014 NOSIG RMK 1CU030 3SC050 A2994
RJTT 130630Z 35015KT 9999 FEW030 27/14 Q1013 NOSIG RMK 1CU030 A2993
RJTT 130600Z 35016KT 9999 FEW030 27/15 Q1012 NOSIG RMK 1CU030 A2991
RJTT 130530Z 35015KT 9999 FEW030 27/16 Q1012 NOSIG RMK 1CU030 A2989
RJTT 130500Z 36017KT 9999 FEW030 27/16 Q1011 NOSIG RMK 1CU030 A2988
RJTT 130430Z 35019KT 9999 FEW030 27/14 Q1011 NOSIG RMK 1CU030 A2986
RJTT 130400Z 34020KT 9999 FEW030 28/15 Q1010 NOSIG RMK 1CU030 A2985
RJTT 130341Z 35021G32KT 9999 FEW030 28/15 Q1010 RMK 1CU030 A2984
RJTT 130330Z 35020KT 9999 FEW030 27/16 Q1010 NOSIG RMK 1CU030 A2984
RJTT 130300Z 34022KT 9999 FEW030 28/15 Q1010 NOSIG RMK 1CU030 A2984
RJTT 130244Z 35018G28KT 9999 FEW030 27/16 Q1010 RMK 1CU030 A2983
RJTT 130230Z 35019KT 9999 FEW030 28/16 Q1010 NOSIG RMK 1CU030 A2983
RJTT 130217Z 34016G26KT 9999 FEW030 28/16 Q1010 RMK 1CU030 A2983
RJTT 130200Z 34020KT 9999 FEW030 28/14 Q1009 NOSIG RMK 1CU030 A2981
RJTT 130130Z 34019KT 9999 FEW030 28/15 Q1009 NOSIG RMK 1CU030 A2979
RJTT 130100Z 34019G29KT 9999 FEW030 28/15 Q1008 NOSIG RMK 1CU030 A2978
RJTT 130040Z 33019G29KT 9999 FEW030 28/15 Q1007 RMK 1CU030 A2976
RJTT 130030Z 32021KT 9999 FEW030 28/16 Q1007 TEMPO 34025G35KT RMK 1CU030 A2976
RJTT 130000Z 33021G31KT 9999 FEW030 27/15 Q1006 NOSIG RMK 1CU030 A2973
RJTT 122330Z 32022G33KT 9999 FEW030 27/15 Q1005 NOSIG RMK 1CU030 A2970
RJTT 122300Z 32021KT 9999 FEW030 27/15 Q1004 TEMPO 34024G34KT RMK 1CU030 A2967
RJTT 122237Z 31019G29KT 9999 FEW030 27/15 Q1004 RMK 1CU030 A2965
RJTT 122230Z 31021KT 9999 FEW030 27/15 Q1003 TEMPO 34022G32KT RMK 1CU030 A2964
RJTT 122200Z 30013KT 9999 FEW030 26/15 Q1003 NOSIG RMK 1CU030 A2963 P/RR
RJTT 122130Z 29011KT 9999 FEW030 25/16 Q1002 NOSIG RMK 1CU030 A2959
RJTT 122100Z 29008KT 9999 FEW030 23/18 Q1001 NOSIG RMK 1CU030 A2956 P/RR
RJTT 122030Z 28008KT 9999 FEW030 23/17 Q1000 NOSIG RMK 1CU030 A2953 P/RR
RJTT 122000Z 30008KT 260V330 CAVOK 24/17 Q0998 NOSIG RMK A2949
RJTT 121930Z 26009KT 240V320 CAVOK 25/17 Q0997 NOSIG RMK A2946 P/RR